createdAt,value
2022-10-06T00:01:05.179Z,13.05
2022-10-06T00:03:48.846Z,13.02
2022-10-06T00:06:21.583Z,13.01
2022-10-06T00:08:54.033Z,13.00
2022-10-06T00:11:26.381Z,12.99
2022-10-06T00:13:58.767Z,13.00
2022-10-06T00:16:30.919Z,12.99
2022-10-06T00:19:03.165Z,13.00
2022-10-06T00:21:35.476Z,12.99
2022-10-06T00:24:08.254Z,12.98
2022-10-06T00:26:42.597Z,12.97
2022-10-06T00:29:14.916Z,13.00
2022-10-06T00:31:47.116Z,13.02
2022-10-06T00:34:19.568Z,13.01
2022-10-06T00:36:52.064Z,13.00
2022-10-06T00:39:24.685Z,12.99
2022-10-06T00:41:56.992Z,12.98
2022-10-06T00:44:29.402Z,12.95
2022-10-06T00:47:03.353Z,12.94
2022-10-06T00:49:39.823Z,12.93
2022-10-06T00:52:18.236Z,12.93
2022-10-06T00:54:50.985Z,12.94
2022-10-06T00:57:23.936Z,12.92
2022-10-06T00:59:57.296Z,12.91
2022-10-06T01:02:35.634Z,12.90
2022-10-06T01:05:11.064Z,12.90
2022-10-06T01:07:43.490Z,12.89
2022-10-06T01:10:15.933Z,12.90
2022-10-06T01:12:52.228Z,12.90
2022-10-06T01:15:26.163Z,12.87
2022-10-06T01:18:03.348Z,12.86
2022-10-06T01:20:38.572Z,12.85
2022-10-06T01:23:12.310Z,12.84
2022-10-06T01:25:47.345Z,12.83
2022-10-06T01:28:21.430Z,12.81
2022-10-06T01:31:01.811Z,12.80
2022-10-06T01:33:35.802Z,12.79
2022-10-06T01:36:09.214Z,12.76
2022-10-06T01:38:41.816Z,12.73
2022-10-06T01:41:16.711Z,12.72
2022-10-06T01:43:49.015Z,12.73
2022-10-06T01:46:23.886Z,12.71
2022-10-06T01:48:56.238Z,12.70
2022-10-06T01:51:29.402Z,12.68
2022-10-06T01:54:01.666Z,12.69
2022-10-06T01:56:34.132Z,12.66
2022-10-06T01:59:07.092Z,12.64
2022-10-06T02:01:41.423Z,12.62
2022-10-06T02:04:13.573Z,12.60
2022-10-06T02:06:47.630Z,12.59
2022-10-06T02:09:19.817Z,12.58
2022-10-06T02:11:52.158Z,12.56
2022-10-06T02:14:24.804Z,12.54
2022-10-06T02:16:56.902Z,12.54
2022-10-06T02:19:29.477Z,12.54
2022-10-06T02:22:04.069Z,12.53
2022-10-06T02:24:36.393Z,12.52
2022-10-06T02:27:11.536Z,12.50
2022-10-06T02:29:44.903Z,12.48
2022-10-06T02:32:20.971Z,12.46
2022-10-06T02:34:57.175Z,12.46
2022-10-06T02:37:29.609Z,12.45
2022-10-06T02:40:06.144Z,12.42
2022-10-06T02:42:40.172Z,12.36
2022-10-06T02:45:13.535Z,12.33
2022-10-06T02:47:46.571Z,12.31
2022-10-06T02:50:19.406Z,12.30
2022-10-06T02:52:51.736Z,12.29
2022-10-06T02:55:26.284Z,12.29
2022-10-06T02:57:58.466Z,12.27
2022-10-06T03:00:30.984Z,12.26
2022-10-06T03:03:03.639Z,12.24
2022-10-06T03:05:36.063Z,12.20
2022-10-06T03:08:11.589Z,12.20
2022-10-06T03:10:43.775Z,12.18
2022-10-06T03:13:16.116Z,12.16
2022-10-06T03:15:48.472Z,12.14
2022-10-06T03:18:21.274Z,12.11
2022-10-06T03:20:54.159Z,12.11
2022-10-06T03:23:26.798Z,12.10
2022-10-06T03:26:02.079Z,12.09
2022-10-06T03:28:35.895Z,12.09
2022-10-06T03:31:09.087Z,12.07
2022-10-06T03:33:41.870Z,12.06
2022-10-06T03:36:19.159Z,12.05
2022-10-06T03:38:52.145Z,12.05
2022-10-06T03:41:28.129Z,12.04
2022-10-06T03:44:01.584Z,12.03
2022-10-06T03:46:38.315Z,12.02
2022-10-06T03:49:12.105Z,12.02
2022-10-06T03:51:49.398Z,12.02
2022-10-06T03:54:24.394Z,12.02
2022-10-06T03:56:58.233Z,12.01
2022-10-06T03:59:34.414Z,12.01
2022-10-06T04:02:11.453Z,11.99
2022-10-06T04:04:43.838Z,11.97
2022-10-06T04:07:19.535Z,11.94
2022-10-06T04:09:52.243Z,11.92
2022-10-06T04:12:24.921Z,11.92
2022-10-06T04:15:00.289Z,11.92
2022-10-06T04:17:33.599Z,11.93
2022-10-06T04:20:09.939Z,11.93
2022-10-06T04:22:42.193Z,11.94
2022-10-06T04:25:14.615Z,11.95
2022-10-06T04:27:47.068Z,11.94
2022-10-06T04:30:21.094Z,11.92
2022-10-06T04:32:53.708Z,11.89
2022-10-06T04:35:27.528Z,11.88
2022-10-06T04:38:00.830Z,11.88
2022-10-06T04:40:33.470Z,11.88
2022-10-06T04:43:06.024Z,11.87
2022-10-06T04:45:38.848Z,11.86
2022-10-06T04:48:11.204Z,11.87
2022-10-06T04:50:44.840Z,11.86
2022-10-06T04:53:19.719Z,11.81
2022-10-06T04:56:01.209Z,11.81
2022-10-06T04:58:36.595Z,11.82
2022-10-06T05:01:17.115Z,11.82
2022-10-06T05:03:51.197Z,11.83
2022-10-06T05:06:25.817Z,11.82
2022-10-06T05:09:00.317Z,11.82
2022-10-06T05:11:34.469Z,11.82
2022-10-06T05:14:09.328Z,11.83
2022-10-06T05:16:44.852Z,11.83
2022-10-06T05:19:18.211Z,11.81
2022-10-06T05:21:50.476Z,11.79
2022-10-06T05:24:26.777Z,11.79
2022-10-06T05:27:02.176Z,11.81
2022-10-06T05:29:35.456Z,11.79
2022-10-06T05:32:10.229Z,11.79
2022-10-06T05:34:44.452Z,11.80
2022-10-06T05:37:16.622Z,11.84
2022-10-06T05:39:48.896Z,11.85
2022-10-06T05:42:26.196Z,11.87
2022-10-06T05:45:01.335Z,11.87
2022-10-06T05:47:33.957Z,11.91
2022-10-06T05:50:07.869Z,11.96
2022-10-06T05:52:40.614Z,12.01
2022-10-06T05:55:13.409Z,12.03
2022-10-06T05:57:45.723Z,12.02
2022-10-06T06:00:22.396Z,12.04
2022-10-06T06:02:55.080Z,12.07
2022-10-06T06:05:27.243Z,12.06
2022-10-06T06:07:59.546Z,12.09
2022-10-06T06:10:32.217Z,12.17
2022-10-06T06:13:04.336Z,12.24
2022-10-06T06:16:04.456Z,12.53
2022-10-06T06:18:39.352Z,14.07
2022-10-06T06:21:15.917Z,15.21
2022-10-06T06:23:51.367Z,15.01
2022-10-06T06:26:25.322Z,14.82
2022-10-06T06:29:04.154Z,14.84
2022-10-06T06:31:40.358Z,14.70
2022-10-06T06:34:13.080Z,14.60
2022-10-06T06:36:54.585Z,14.67
2022-10-06T06:39:27.950Z,14.73
2022-10-06T06:42:02.293Z,14.65
2022-10-06T06:44:46.744Z,14.60
2022-10-06T06:57:59.455Z,16.76
2022-10-06T07:04:58.359Z,20.34
2022-10-06T07:08:21.395Z,19.72
2022-10-06T07:10:55.642Z,19.34
2022-10-06T07:13:57.794Z,19.65
2022-10-06T07:29:24.384Z,17.76
2022-10-06T07:32:57.031Z,18.55
2022-10-06T07:40:19.703Z,23.10
2022-10-06T07:42:58.348Z,24.14
2022-10-06T07:50:50.641Z,27.22
2022-10-06T07:58:24.339Z,29.90
2022-10-06T08:25:08.248Z,32.49
2022-10-06T08:27:44.677Z,31.39
2022-10-06T08:39:03.598Z,33.85
2022-10-06T08:42:18.640Z,35.83
2022-10-06T08:49:22.038Z,40.17
2022-10-06T08:56:48.831Z,42.32
2022-10-06T08:59:22.539Z,43.35
2022-10-06T09:11:25.935Z,44.96
2022-10-06T09:15:07.977Z,44.77
2022-10-06T09:31:33.038Z,34.68
2022-10-06T09:42:50.168Z,29.61
2022-10-06T09:49:32.506Z,27.97
2022-10-06T09:52:11.828Z,27.46
2022-10-06T09:59:07.354Z,26.05
2022-10-06T10:01:41.710Z,25.74
2022-10-06T10:09:38.527Z,25.11
2022-10-06T10:16:43.761Z,24.32
2022-10-06T10:24:27.265Z,23.63
2022-10-06T10:31:59.163Z,22.76
2022-10-06T10:48:30.612Z,21.53
2022-10-06T10:55:30.912Z,21.27
2022-10-06T10:58:14.897Z,21.21
2022-10-06T11:00:51.525Z,21.14
2022-10-06T11:03:23.700Z,21.09
2022-10-06T11:06:15.847Z,21.08
2022-10-06T11:08:57.301Z,21.05
2022-10-06T11:11:51.322Z,21.02
2022-10-06T11:15:13.732Z,20.96
2022-10-06T11:18:26.226Z,20.80
2022-10-06T11:21:04.085Z,20.70
2022-10-06T11:23:48.768Z,20.57
2022-10-06T11:26:32.646Z,20.47
2022-10-06T11:29:19.114Z,20.43
2022-10-06T11:32:02.126Z,20.40
2022-10-06T11:34:34.460Z,20.34
2022-10-06T11:37:17.812Z,20.29
2022-10-06T11:39:56.645Z,20.26
2022-10-06T11:42:37.729Z,20.21
2022-10-06T11:45:16.475Z,20.19
2022-10-06T11:48:11.036Z,20.21
2022-10-06T11:50:45.285Z,20.23
2022-10-06T11:53:39.388Z,20.19
2022-10-06T11:59:24.533Z,20.23
2022-10-06T12:02:03.553Z,20.22
2022-10-06T12:04:36.114Z,20.27
2022-10-06T12:07:11.053Z,20.29
2022-10-06T12:10:15.577Z,20.27
2022-10-06T12:13:06.565Z,20.17
2022-10-06T12:19:27.142Z,19.88
2022-10-06T12:22:11.232Z,19.77
2022-10-06T12:24:47.716Z,19.69
2022-10-06T12:27:33.514Z,19.63
2022-10-06T12:30:19.460Z,19.52
2022-10-06T12:32:57.435Z,19.43
2022-10-06T12:35:34.783Z,19.41
2022-10-06T12:38:07.844Z,19.39
2022-10-06T12:40:51.342Z,19.34
2022-10-06T12:43:59.828Z,19.30
2022-10-06T12:46:49.465Z,19.29
2022-10-06T12:49:49.913Z,19.31
2022-10-06T12:52:46.201Z,19.38
2022-10-06T12:55:49.252Z,19.47
2022-10-06T12:58:28.606Z,19.57
2022-10-06T13:01:05.862Z,19.63
2022-10-06T13:03:38.925Z,19.67
2022-10-06T13:06:11.938Z,19.63
2022-10-06T13:08:44.126Z,19.59
2022-10-06T13:11:23.354Z,19.47
2022-10-06T13:13:59.836Z,19.44
2022-10-06T13:16:39.402Z,19.50
2022-10-06T13:19:19.687Z,19.57
2022-10-06T13:21:53.153Z,19.60
2022-10-06T13:24:28.718Z,19.57
2022-10-06T13:27:02.971Z,19.48
2022-10-06T13:29:35.641Z,19.46
2022-10-06T13:32:19.430Z,19.48
2022-10-06T13:34:51.652Z,19.40
2022-10-06T13:37:23.836Z,19.34
2022-10-06T13:39:56.103Z,19.31
2022-10-06T13:42:29.106Z,19.31
2022-10-06T13:45:06.980Z,19.31
2022-10-06T13:47:40.381Z,19.26
2022-10-06T13:50:20.198Z,19.10
2022-10-06T13:52:52.418Z,18.96
2022-10-06T13:55:26.528Z,18.87
2022-10-06T13:58:13.859Z,18.81
2022-10-06T14:00:56.436Z,18.78
2022-10-06T14:06:19.080Z,18.80
2022-10-06T14:08:55.132Z,18.82
2022-10-06T14:11:32.301Z,18.83
2022-10-06T14:14:07.806Z,18.76
2022-10-06T14:22:34.353Z,18.69
2022-10-06T14:29:25.258Z,18.48
2022-10-06T14:31:57.321Z,18.46
2022-10-06T14:38:17.927Z,18.40
2022-10-06T14:46:04.043Z,18.33
2022-10-06T14:49:27.748Z,18.17
2022-10-06T14:52:00.243Z,18.08
2022-10-06T14:54:47.552Z,18.07
2022-10-06T15:10:19.984Z,17.98
2022-10-06T15:12:58.700Z,17.98
2022-10-06T15:15:34.170Z,17.98
2022-10-06T15:18:57.154Z,17.94
2022-10-06T15:30:15.584Z,17.89
2022-10-06T15:32:55.633Z,17.80
2022-10-06T15:35:27.714Z,17.75
2022-10-06T15:38:06.702Z,17.69
2022-10-06T15:40:38.885Z,17.61
2022-10-06T15:48:09.451Z,17.52
2022-10-06T15:50:42.148Z,17.50
2022-10-06T15:53:23.582Z,17.47
2022-10-06T15:56:44.536Z,17.39
2022-10-06T15:59:24.516Z,17.34
2022-10-06T16:01:58.417Z,17.31
2022-10-06T16:05:02.252Z,17.26
2022-10-06T16:16:11.801Z,17.02
2022-10-06T16:18:44.000Z,16.96
2022-10-06T16:21:33.366Z,16.91
2022-10-06T16:24:11.938Z,16.92
2022-10-06T16:26:44.357Z,16.90
2022-10-06T16:29:17.037Z,16.89
2022-10-06T16:32:28.572Z,16.86
2022-10-06T16:39:42.790Z,16.65
2022-10-06T16:46:47.346Z,16.40
2022-10-06T16:49:19.960Z,16.30
2022-10-06T16:51:59.064Z,16.19
2022-10-06T16:54:43.630Z,16.09
2022-10-06T16:57:15.807Z,15.98
2022-10-06T17:08:18.876Z,15.60
2022-10-06T17:11:47.845Z,15.53
2022-10-06T17:18:55.771Z,15.29
2022-10-06T17:21:44.931Z,15.21
2022-10-06T17:25:12.926Z,15.06
2022-10-06T17:27:45.051Z,14.96
2022-10-06T17:30:17.369Z,14.86
2022-10-06T17:32:57.058Z,14.79
2022-10-06T17:35:46.788Z,14.70
2022-10-06T17:47:30.882Z,14.27
2022-10-06T17:54:07.550Z,14.11
2022-10-06T18:01:36.722Z,13.91
2022-10-06T18:13:53.195Z,13.73
2022-10-06T18:21:15.656Z,13.55
2022-10-06T18:23:55.148Z,13.49
2022-10-06T18:26:29.935Z,13.43
2022-10-06T18:29:04.485Z,13.36
2022-10-06T18:49:36.564Z,12.84
2022-10-06T18:56:41.651Z,12.67
2022-10-06T18:59:16.461Z,12.62
2022-10-06T19:02:38.901Z,12.53
2022-10-06T19:05:12.058Z,12.47
2022-10-06T19:07:44.710Z,12.43
2022-10-06T19:10:17.911Z,12.36
2022-10-06T19:12:49.887Z,12.32
2022-10-06T19:15:21.965Z,12.30
2022-10-06T19:17:53.976Z,12.26
2022-10-06T19:20:26.412Z,12.24
2022-10-06T19:22:58.749Z,12.22
2022-10-06T19:25:33.370Z,12.18
2022-10-06T19:28:05.901Z,12.11
2022-10-06T19:30:38.053Z,12.05
2022-10-06T19:33:10.312Z,11.98
2022-10-06T19:35:51.313Z,11.91
2022-10-06T19:38:23.463Z,11.86
2022-10-06T19:41:15.845Z,11.82
2022-10-06T19:43:47.878Z,11.78
2022-10-06T19:46:20.150Z,11.71
2022-10-06T19:48:58.614Z,11.68
2022-10-06T19:51:30.674Z,11.67
2022-10-06T19:54:03.736Z,11.63
2022-10-06T19:56:35.912Z,11.61
2022-10-06T19:59:09.107Z,11.56
2022-10-06T20:01:42.338Z,11.51
2022-10-06T20:05:00.036Z,11.47
2022-10-06T20:07:32.099Z,11.43
2022-10-06T20:10:04.419Z,11.40
2022-10-06T20:13:23.528Z,11.35
2022-10-06T20:15:55.645Z,11.30
2022-10-06T20:18:29.957Z,11.27
2022-10-06T20:21:02.003Z,11.24
2022-10-06T20:24:18.496Z,11.17
2022-10-06T20:26:52.359Z,11.11
2022-10-06T20:29:26.478Z,11.06
2022-10-06T20:31:59.718Z,11.03
2022-10-06T20:34:32.916Z,10.99
2022-10-06T20:37:06.706Z,10.97
2022-10-06T20:39:56.734Z,10.95
2022-10-06T20:43:04.332Z,10.91
2022-10-06T20:46:08.787Z,10.85
2022-10-06T20:48:40.835Z,10.82
2022-10-06T20:51:16.231Z,10.80
2022-10-06T20:53:48.605Z,10.77
2022-10-06T20:56:21.372Z,10.74
2022-10-06T20:58:53.631Z,10.68
2022-10-06T21:01:25.946Z,10.64
2022-10-06T21:03:57.932Z,10.63
2022-10-06T21:06:30.335Z,10.63
2022-10-06T21:09:03.834Z,10.59
2022-10-06T21:11:36.234Z,10.57
2022-10-06T21:14:12.709Z,10.53
2022-10-06T21:16:46.537Z,10.52
2022-10-06T21:19:20.067Z,10.51
2022-10-06T21:21:55.903Z,10.49
2022-10-06T21:24:27.918Z,10.47
2022-10-06T21:27:00.422Z,10.45
2022-10-06T21:29:32.450Z,10.42
2022-10-06T21:32:05.272Z,10.39
2022-10-06T21:34:37.456Z,10.35
2022-10-06T21:37:10.261Z,10.33
2022-10-06T21:39:45.581Z,10.28
2022-10-06T21:42:19.401Z,10.26
2022-10-06T21:44:51.751Z,10.23
2022-10-06T21:47:23.811Z,10.20
2022-10-06T21:49:55.977Z,10.16
2022-10-06T21:52:28.044Z,10.13
2022-10-06T21:55:00.228Z,10.09
2022-10-06T21:57:32.405Z,10.04
2022-10-06T22:00:05.153Z,10.01
2022-10-06T22:02:45.080Z,9.98
2022-10-06T22:05:17.518Z,9.94
2022-10-06T22:07:49.556Z,9.93
2022-10-06T22:10:21.503Z,9.90
2022-10-06T22:12:54.558Z,9.84
2022-10-06T22:15:26.540Z,9.79
2022-10-06T22:17:58.744Z,9.75
2022-10-06T22:20:32.137Z,9.71
2022-10-06T22:23:05.125Z,9.67
2022-10-06T22:25:37.536Z,9.63
2022-10-06T22:28:10.491Z,9.59
2022-10-06T22:30:42.571Z,9.54
2022-10-06T22:33:14.658Z,9.49
2022-10-06T22:35:53.205Z,9.42
2022-10-06T22:38:25.776Z,9.37
2022-10-06T22:41:01.940Z,9.32
2022-10-06T22:43:34.430Z,9.27
2022-10-06T22:46:08.046Z,9.24
2022-10-06T22:48:40.693Z,9.19
2022-10-06T22:51:12.850Z,9.13
2022-10-06T22:53:45.358Z,9.09
2022-10-06T22:56:17.786Z,9.07
2022-10-06T22:58:49.998Z,9.03
2022-10-06T23:01:22.305Z,8.99
2022-10-06T23:03:56.248Z,8.92
2022-10-06T23:06:29.846Z,8.88
2022-10-06T23:09:03.566Z,8.86
2022-10-06T23:11:35.591Z,8.86
2022-10-06T23:14:07.583Z,8.83
2022-10-06T23:16:39.813Z,8.78
2022-10-06T23:19:13.219Z,8.73
2022-10-06T23:21:45.246Z,8.69
2022-10-06T23:24:17.328Z,8.65
2022-10-06T23:26:49.472Z,8.64
2022-10-06T23:29:21.606Z,8.61
2022-10-06T23:31:53.910Z,8.56
2022-10-06T23:34:26.065Z,8.52
2022-10-06T23:36:58.015Z,8.47
2022-10-06T23:39:30.064Z,8.44
2022-10-06T23:42:02.269Z,8.40
2022-10-06T23:44:34.469Z,8.35
2022-10-06T23:47:06.836Z,8.31
2022-10-06T23:49:41.431Z,8.26
2022-10-06T23:52:16.572Z,8.22
2022-10-06T23:54:49.687Z,8.19
2022-10-06T23:57:22.086Z,8.16
2022-10-06T23:59:54.199Z,8.13
